Time;durP1;ratioP1;P1;durP2;ratioP2;P2;SDS_P1;SDS_P2;PMS_P1;PMS_P2;Temp;Humidity;BMP_temperature;BMP_pressure;BME280_temperature;BME280_humidity;BME280_pressure;Samples;Min_cycle;Max_cycle;Signal;HPM_P1;HPM_P2
2021/05/06 00:30:47;;;;;;;2.08;1.87;;;;;;;20.38;48.50;98677.88;1857339;77;21151;-70
2021/05/06 00:32:58;;;;;;;1.60;1.50;;;;;;;20.36;48.54;98669.78;1853132;77;21163;-70
2021/05/06 00:35:26;;;;;;;1.42;1.32;;;;;;;20.35;48.55;98675.69;1857424;77;21343;-70
2021/05/06 00:38:09;;;;;;;2.10;1.50;;;;;;;20.34;48.58;98688.07;1857321;77;21143;-69
2021/05/06 00:56:57;;;;;;;1.35;1.25;;;;;;;20.19;48.71;98654.53;1756279;80;21136;-70
2021/05/06 00:59:37;;;;;;;1.55;1.42;;;;;;;20.19;48.76;98646.98;1800596;79;21170;-69
2021/05/06 01:04:36;;;;;;;1.45;1.35;;;;;;;20.17;48.78;98644.54;1804332;79;21174;-69
2021/05/06 01:07:13;;;;;;;1.72;1.40;;;;;;;20.18;48.79;98635.91;1788509;79;21569;-70
2021/05/06 01:12:14;;;;;;;1.70;1.50;;;;;;;20.20;48.87;98628.37;1760922;80;22768;-69
2021/05/06 01:14:42;;;;;;;1.98;1.50;;;;;;;20.16;48.85;98628.07;1792603;79;21121;-70
2021/05/06 01:17:27;;;;;;;1.47;1.37;;;;;;;20.16;48.88;98638.86;1802470;79;21180;-70
2021/05/06 01:19:56;;;;;;;1.35;1.22;;;;;;;20.14;48.92;98628.86;1806438;79;21549;-70
2021/05/06 01:22:23;;;;;;;1.55;1.40;;;;;;;20.14;48.86;98631.56;1801437;79;21098;-69
2021/05/06 01:24:55;;;;;;;1.67;1.57;;;;;;;20.15;48.91;98632.39;1798178;79;21179;-70
2021/05/06 01:27:38;;;;;;;1.80;1.70;;;;;;;20.14;48.90;98645.59;1795015;79;21172;-70
2021/05/06 01:32:37;;;;;;;2.45;1.70;;;;;;;20.14;48.92;98638.30;1788365;79;21158;-70
2021/05/06 01:35:02;;;;;;;1.92;1.30;;;;;;;20.14;48.88;98641.54;1779836;79;21553;-71
2021/05/06 01:37:33;;;;;;;1.60;1.47;;;;;;;20.12;48.88;98635.05;1767233;79;21502;-70
2021/05/06 01:40:12;;;;;;;1.60;1.50;;;;;;;20.12;48.86;98623.46;1762762;79;21155;-69
2021/05/06 01:48:20;;;;;;;1.85;1.60;;;;;;;20.08;48.93;98625.86;1803899;78;21194;-69
2021/05/06 01:51:09;;;;;;;1.50;1.40;;;;;;;20.06;48.89;98615.87;1855079;77;21191;-70
2021/05/06 01:58:52;;;;;;;2.62;1.50;;;;;;;20.02;48.92;98603.98;1770019;77;21145;-69
2021/05/06 02:01:17;;;;;;;1.42;1.30;;;;;;;20.00;48.94;98612.86;1823590;75;21140;-69
2021/05/06 02:03:44;;;;;;;1.27;1.12;;;;;;;19.99;48.93;98637.66;1851575;77;21475;-69
2021/05/06 02:06:11;;;;;;;1.60;1.50;;;;;;;19.99;48.95;98609.88;1857352;77;21106;-69
2021/05/06 02:08:39;;;;;;;1.82;1.65;;;;;;;19.99;48.92;98597.74;1833693;75;21192;-69
2021/05/06 02:11:08;;;;;;;1.50;1.40;;;;;;;19.98;48.92;98609.06;1856809;77;21169;-70
2021/05/06 02:13:56;;;;;;;2.47;1.55;;;;;;;20.02;48.97;98599.94;1837621;77;22675;-69
2021/05/06 02:16:38;;;;;;;1.65;1.47;;;;;;;19.97;48.99;98595.84;1799571;79;21134;-70
2021/05/06 02:19:06;;;;;;;1.55;1.45;;;;;;;19.96;49.00;98595.58;1820045;78;21371;-69
2021/05/06 02:21:34;;;;;;;1.47;1.37;;;;;;;19.95;48.97;98595.29;1819270;78;21610;-70
2021/05/06 02:24:04;;;;;;;1.77;1.55;;;;;;;19.94;49.00;98588.28;1817082;78;21169;-69
2021/05/06 02:26:34;;;;;;;1.62;1.52;;;;;;;19.93;48.98;98591.50;1806189;78;21083;-70
2021/05/06 02:29:02;;;;;;;2.10;1.30;;;;;;;19.93;48.89;98586.11;1817448;78;21130;-69
2021/05/06 02:31:31;;;;;;;1.90;1.45;;;;;;;19.92;48.93;98583.15;1817966;78;21133;-70
2021/05/06 02:33:59;;;;;;;1.40;1.20;;;;;;;19.93;49.02;98596.08;1818116;78;21661;-71
2021/05/06 02:36:26;;;;;;;1.52;1.35;;;;;;;19.91;49.04;98585.55;1786482;78;21014;-70
2021/05/06 02:38:56;;;;;;;1.57;1.47;;;;;;;19.91;49.08;98587.45;1784394;80;21118;-70
2021/05/06 02:41:23;;;;;;;1.95;1.47;;;;;;;19.91;49.03;98599.03;1807870;77;21164;-70
2021/05/06 02:43:51;;;;;;;3.42;1.75;;;;;;;19.90;49.14;98614.94;1793245;77;22180;-70
2021/05/06 02:46:19;;;;;;;1.57;1.30;;;;;;;19.90;49.05;98606.05;1811954;78;21196;-69
2021/05/06 02:48:46;;;;;;;2.00;1.60;;;;;;;19.90;49.07;98596.61;1817494;79;21165;-70
2021/05/06 02:51:14;;;;;;;3.22;1.52;;;;;;;19.89;49.00;98594.98;1794805;78;21187;-70
2021/05/06 02:53:50;;;;;;;1.77;1.65;;;;;;;19.88;49.00;98596.87;1795259;79;21138;-70
2021/05/06 02:56:17;;;;;;;1.77;1.50;;;;;;;19.87;49.01;98588.48;1816554;77;21387;-70
2021/05/06 03:04:03;;;;;;;1.50;1.40;;;;;;;19.85;49.10;98590.63;1796210;78;21161;-69
2021/05/06 03:06:27;;;;;;;1.72;1.50;;;;;;;19.82;49.12;98614.87;1817129;78;21487;-69
2021/05/06 03:12:02;;;;;;;1.70;1.57;;;;;;;19.84;49.17;98595.21;1753376;80;22703;-70
2021/05/06 03:25:12;;;;;;;2.35;1.22;;;;;;;19.74;49.13;98598.34;1795345;79;21145;-70
2021/05/06 03:34:39;;;;;;;1.70;1.60;;;;;;;19.71;49.30;98618.50;1763119;79;21166;-70
2021/05/06 04:19:09;;;;;;;1.50;1.40;;;;;;;19.64;49.55;98667.73;1809073;77;21646;-71
2021/05/06 04:37:19;;;;;;;2.08;1.60;;;;;;;19.69;49.63;98665.09;1796762;78;21134;-69
2021/05/06 04:39:52;;;;;;;2.25;1.82;;;;;;;19.69;49.47;98679.11;1796898;78;21145;-70
2021/05/06 04:55:38;;;;;;;1.72;1.57;;;;;;;19.71;49.56;98706.61;1776572;79;21174;-71
2021/05/06 04:58:18;;;;;;;1.95;1.80;;;;;;;19.71;49.54;98697.98;1784564;79;21766;-69
2021/05/06 05:03:34;;;;;;;1.62;1.50;;;;;;;19.72;49.67;98683.49;1774387;79;21111;-69
2021/05/06 05:05:47;;;;;;;1.37;1.27;;;;;;;19.71;49.52;98704.72;1771829;79;21199;-70
2021/05/06 05:08:16;;;;;;;2.87;1.55;;;;;;;19.72;49.63;98688.88;1785409;79;21406;-70
2021/05/06 05:10:53;;;;;;;3.05;1.90;;;;;;;19.72;49.53;98702.35;1790155;79;21160;-69
2021/05/06 05:13:33;;;;;;;1.72;1.60;;;;;;;19.75;49.60;98713.15;1789539;79;21128;-70
2021/05/06 05:24:16;;;;;;;2.95;1.77;;;;;;;19.78;49.66;98712.63;1855341;77;20992;-70
2021/05/06 05:26:37;;;;;;;2.02;1.72;;;;;;;19.76;49.61;98712.91;1837364;75;21188;-69
2021/05/06 05:29:06;;;;;;;2.20;1.95;;;;;;;19.76;49.63;98704.82;1853487;77;21131;-71
2021/05/06 05:32:58;;;;;;;1.77;1.67;;;;;;;19.82;49.71;98715.92;1844557;76;24061;-70
2021/05/06 05:35:36;;;;;;;2.33;1.90;;;;;;;19.76;49.72;98730.42;1812390;79;21121;-69
2021/05/06 05:38:27;;;;;;;2.52;1.67;;;;;;;19.78;49.73;98729.63;1793310;77;21190;-70
2021/05/06 05:56:37;;;;;;;2.70;1.80;;;;;;;19.79;49.68;98740.67;1780281;77;21139;-69
2021/05/06 05:59:05;;;;;;;2.37;1.90;;;;;;;19.79;49.68;98731.23;1815677;78;21141;-70
2021/05/06 06:01:33;;;;;;;3.40;1.80;;;;;;;19.80;49.74;98735.58;1779724;78;21598;-70
2021/05/06 06:04:01;;;;;;;1.70;1.60;;;;;;;19.81;49.76;98739.88;1776480;78;21376;-69
2021/05/06 06:06:30;;;;;;;3.55;1.75;;;;;;;19.83;49.79;98774.13;1765893;77;21178;-69
2021/05/06 06:08:58;;;;;;;2.17;1.98;;;;;;;19.85;49.80;98741.55;1806990;77;21110;-70
2021/05/06 06:11:25;;;;;;;2.20;1.77;;;;;;;19.87;49.79;98760.97;1803444;78;21140;-69
2021/05/06 06:13:54;;;;;;;2.10;1.90;;;;;;;19.89;49.76;98751.29;1816700;78;21166;-70
2021/05/06 06:16:28;;;;;;;2.85;1.80;;;;;;;19.90;49.72;98756.44;1788012;77;21807;-70
2021/05/06 06:18:57;;;;;;;2.40;1.97;;;;;;;19.93;49.73;98760.49;1805439;78;21157;-70
2021/05/06 06:24:07;;;;;;;2.10;1.90;;;;;;;20.00;49.71;98774.59;1837036;76;22769;-69
2021/05/06 06:26:36;;;;;;;1.90;1.75;;;;;;;19.99;49.65;98772.95;1803072;79;21133;-70
2021/05/06 06:29:10;;;;;;;2.75;1.80;;;;;;;19.99;49.57;98802.09;1819942;78;21897;-69
2021/05/06 06:31:43;;;;;;;2.22;1.80;;;;;;;20.00;49.57;98788.87;1819692;78;21153;-68
2021/05/06 06:34:09;;;;;;;2.95;2.25;;;;;;;20.02;49.56;98779.20;1820535;78;21149;-69
2021/05/06 06:36:39;;;;;;;2.45;2.00;;;;;;;20.02;49.59;98787.28;1818340;78;21570;-69
2021/05/06 06:39:07;;;;;;;3.15;1.92;;;;;;;20.02;49.68;98798.06;1819972;78;21118;-70
2021/05/06 06:41:34;;;;;;;2.08;1.90;;;;;;;19.99;49.65;98794.52;1818326;78;22035;-70
2021/05/06 06:44:03;;;;;;;2.47;2.08;;;;;;;20.04;49.63;98799.97;1817395;78;21145;-69
2021/05/06 06:46:31;;;;;;;2.80;1.92;;;;;;;20.04;49.70;98806.72;1785269;79;21594;-69
2021/05/06 06:49:00;;;;;;;2.90;2.22;;;;;;;20.04;49.64;98822.89;1784489;79;21701;-69
2021/05/06 06:51:28;;;;;;;2.40;1.87;;;;;;;20.04;49.69;98812.91;1818177;78;21181;-70
2021/05/06 06:53:56;;;;;;;2.45;2.08;;;;;;;20.03;49.77;98818.04;1818477;78;21325;-69
2021/05/06 06:56:23;;;;;;;2.55;1.87;;;;;;;20.06;49.82;98823.98;1818405;78;21133;-70
2021/05/06 06:58:52;;;;;;;2.20;2.00;;;;;;;20.04;49.87;98826.39;1818545;78;21098;-69
2021/05/06 07:01:20;;;;;;;1.92;1.70;;;;;;;20.05;49.89;98829.92;1818444;78;21178;-70
2021/05/06 07:03:48;;;;;;;3.22;2.08;;;;;;;20.04;49.94;98842.56;1818509;78;21082;-69
2021/05/06 07:06:16;;;;;;;4.17;1.92;;;;;;;20.03;50.02;98843.65;1818538;78;21347;-69
2021/05/06 07:08:46;;;;;;;2.92;2.08;;;;;;;20.03;50.03;98853.09;1818524;78;21149;-69
2021/05/06 07:11:12;;;;;;;2.30;1.98;;;;;;;20.02;50.12;98847.40;1818529;78;21165;-69
2021/05/06 07:13:40;;;;;;;2.05;1.82;;;;;;;20.02;50.15;98861.42;1818489;78;21615;-71
2021/05/06 07:16:08;;;;;;;2.83;2.27;;;;;;;20.02;50.20;98857.37;1818534;77;21157;-69
2021/05/06 07:18:37;;;;;;;2.55;1.80;;;;;;;20.01;50.16;98861.12;1818496;78;21178;-70
2021/05/06 07:21:06;;;;;;;1.85;1.75;;;;;;;20.01;50.21;98867.34;1818489;78;21137;-69
2021/05/06 07:23:34;;;;;;;2.42;2.22;;;;;;;20.01;50.27;98871.91;1818396;78;21187;-69
2021/05/06 07:26:04;;;;;;;2.33;1.98;;;;;;;20.00;50.28;98863.55;1818216;78;21165;-69
2021/05/06 07:28:38;;;;;;;2.47;2.20;;;;;;;19.99;50.32;98861.91;1818568;78;21285;-69
2021/05/06 07:31:10;;;;;;;2.10;1.90;;;;;;;19.99;50.34;98853.31;1791198;79;21543;-69
2021/05/06 07:33:40;;;;;;;2.47;2.10;;;;;;;19.99;50.40;98879.43;1798182;78;21454;-69
2021/05/06 07:36:11;;;;;;;2.67;2.30;;;;;;;19.98;50.44;98900.73;1799226;79;21138;-70
2021/05/06 07:38:40;;;;;;;1.80;1.70;;;;;;;19.98;50.49;98914.20;1816784;79;21142;-70
2021/05/06 07:41:12;;;;;;;2.27;2.00;;;;;;;19.98;50.54;98917.70;1814947;79;21169;-69
2021/05/06 07:43:45;;;;;;;1.80;1.70;;;;;;;19.98;50.50;98919.59;1788462;79;23951;-70
2021/05/06 07:46:12;;;;;;;2.80;2.30;;;;;;;19.97;50.52;98926.87;1778590;79;21157;-70
2021/05/06 07:48:41;;;;;;;2.20;1.77;;;;;;;19.98;50.54;98935.77;1816145;79;21122;-70
2021/05/06 07:51:11;;;;;;;2.10;1.77;;;;;;;19.97;50.61;98934.97;1783438;77;21177;-71
2021/05/06 07:53:48;;;;;;;1.90;1.70;;;;;;;19.97;50.62;98923.34;1784620;80;21189;-70
2021/05/06 07:56:14;;;;;;;2.12;1.92;;;;;;;19.97;50.61;98917.95;1804120;79;21199;-70
2021/05/06 07:58:42;;;;;;;2.05;1.80;;;;;;;19.96;50.70;98933.86;1769520;77;21122;-70
2021/05/06 08:01:10;;;;;;;1.70;1.60;;;;;;;19.95;50.71;98950.58;1796521;79;21046;-69
2021/05/06 08:03:37;;;;;;;1.80;1.60;;;;;;;19.97;50.78;98953.00;1782658;77;21169;-70
2021/05/06 08:06:05;;;;;;;2.22;1.95;;;;;;;19.97;50.75;98952.48;1815654;77;21114;-70
2021/05/06 08:08:32;;;;;;;1.80;1.62;;;;;;;19.97;50.76;98957.87;1776662;77;21230;-70
2021/05/06 08:11:00;;;;;;;2.55;1.75;;;;;;;19.97;50.75;98952.48;1768381;79;21147;-70
2021/05/06 08:13:29;;;;;;;2.15;1.90;;;;;;;19.98;50.71;98949.25;1803228;79;21181;-70
2021/05/06 08:15:56;;;;;;;2.42;1.70;;;;;;;19.98;50.73;98951.41;1803602;79;21165;-71
2021/05/06 08:18:24;;;;;;;2.58;1.82;;;;;;;19.99;50.75;98949.52;1806485;77;21134;-70
2021/05/06 08:20:52;;;;;;;1.70;1.60;;;;;;;20.00;50.76;98953.86;1814551;79;21459;-70
2021/05/06 08:23:21;;;;;;;1.90;1.70;;;;;;;20.00;50.75;98953.86;1805457;78;21156;-70
2021/05/06 08:25:49;;;;;;;2.10;1.90;;;;;;;20.01;50.73;98948.73;1816624;79;21177;-70
2021/05/06 08:28:17;;;;;;;1.92;1.70;;;;;;;20.02;50.73;98955.77;1808806;79;21615;-71
2021/05/06 08:30:44;;;;;;;3.80;1.80;;;;;;;20.03;50.71;98953.38;1801455;79;21125;-70
2021/05/06 08:33:13;;;;;;;1.65;1.55;;;;;;;20.03;50.69;98955.53;1809089;79;21378;-71
2021/05/06 08:35:41;;;;;;;1.77;1.67;;;;;;;20.05;50.64;98970.11;1816175;79;21161;-70
2021/05/06 08:38:08;;;;;;;1.70;1.60;;;;;;;20.07;50.58;98988.20;1801387;79;21141;-70
2021/05/06 08:40:37;;;;;;;1.50;1.40;;;;;;;20.08;50.49;98992.52;1801429;79;21109;-70
2021/05/06 08:43:08;;;;;;;1.92;1.60;;;;;;;20.10;50.50;99001.70;1801376;79;21136;-70
2021/05/06 08:45:42;;;;;;;1.55;1.45;;;;;;;20.11;50.46;98999.28;1790735;79;21131;-71
2021/05/06 08:48:06;;;;;;;1.72;1.62;;;;;;;20.12;50.47;98999.04;1816760;78;21617;-71
2021/05/06 08:50:33;;;;;;;2.02;1.60;;;;;;;20.13;50.62;98998.53;1775419;80;21143;-72
2021/05/06 08:53:01;;;;;;;1.85;1.75;;;;;;;20.14;50.65;99005.00;1785416;79;21163;-70
2021/05/06 08:55:28;;;;;;;2.10;1.72;;;;;;;20.14;50.70;99003.64;1785416;79;21178;-70
2021/05/06 08:57:56;;;;;;;1.50;1.40;;;;;;;20.16;50.66;99008.26;1795900;79;21373;-70
2021/05/06 09:00:23;;;;;;;1.50;1.40;;;;;;;20.17;50.71;99014.48;1808494;79;21587;-70
2021/05/06 09:02:52;;;;;;;1.67;1.57;;;;;;;20.17;50.56;99026.63;1794888;79;21758;-70
2021/05/06 09:05:22;;;;;;;2.05;1.50;;;;;;;20.17;50.67;99030.67;1790093;79;21109;-70
2021/05/06 09:07:50;;;;;;;1.92;1.70;;;;;;;20.18;50.69;99025.00;1793048;79;21567;-71
2021/05/06 09:10:38;;;;;;;1.72;1.62;;;;;;;20.18;50.73;99025.00;1810271;79;21374;-71
2021/05/06 09:13:28;;;;;;;1.60;1.50;;;;;;;20.19;50.71;99021.25;1791817;79;21187;-72
2021/05/06 09:15:55;;;;;;;2.00;1.80;;;;;;;20.19;50.74;99025.30;1785469;79;21167;-69
2021/05/06 09:18:47;;;;;;;1.90;1.77;;;;;;;20.20;50.82;99027.45;1807004;79;21154;-70
2021/05/06 09:21:34;;;;;;;1.87;1.77;;;;;;;20.22;50.86;99030.72;1792517;79;21363;-70
2021/05/06 09:24:17;;;;;;;1.60;1.30;;;;;;;20.24;50.86;99024.54;1804744;78;21406;-70
2021/05/06 09:26:42;;;;;;;1.60;1.50;;;;;;;20.26;50.91;99028.34;1803393;78;21151;-71
2021/05/06 09:29:11;;;;;;;1.72;1.62;;;;;;;20.29;50.88;99023.27;1806083;79;21146;-70
2021/05/06 09:31:41;;;;;;;1.75;1.62;;;;;;;20.35;50.97;99032.25;1800482;79;21178;-71
2021/05/06 09:34:11;;;;;;;1.70;1.60;;;;;;;20.39;51.06;99034.19;1798971;79;21585;-70
2021/05/06 09:36:39;;;;;;;1.37;1.27;;;;;;;20.46;51.04;99049.40;1801407;79;21355;-71
2021/05/06 09:39:10;;;;;;;1.87;1.72;;;;;;;20.49;51.19;99046.99;1775868;79;21177;-70
2021/05/06 09:41:37;;;;;;;1.90;1.75;;;;;;;20.54;51.10;99051.66;1808370;79;21162;-69
2021/05/06 09:44:13;;;;;;;1.80;1.70;;;;;;;20.58;50.95;99052.24;1817482;79;21134;-70
2021/05/06 09:46:55;;;;;;;1.60;1.50;;;;;;;20.62;50.81;99056.10;1816263;78;21133;-70
2021/05/06 09:49:15;;;;;;;1.77;1.50;;;;;;;20.68;50.98;99054.83;1813778;78;21376;-70
2021/05/06 09:51:51;;;;;;;2.33;1.70;;;;;;;20.73;50.88;99058.95;1791264;79;21413;-69
2021/05/06 09:54:30;;;;;;;1.50;1.40;;;;;;;20.79;50.90;99051.19;1780858;79;21190;-70
2021/05/06 09:57:07;;;;;;;1.65;1.55;;;;;;;20.86;50.85;99062.63;1780116;79;21106;-71
2021/05/06 09:59:39;;;;;;;3.27;1.60;;;;;;;20.92;50.88;99058.06;1793459;79;21133;-71
2021/05/06 10:02:15;;;;;;;1.67;1.57;;;;;;;20.97;50.84;99060.83;1793339;79;22758;-70
2021/05/06 10:04:44;;;;;;;1.50;1.40;;;;;;;21.00;50.83;99061.69;1784756;79;21221;-70
2021/05/06 10:07:23;;;;;;;1.60;1.50;;;;;;;21.04;50.61;99067.41;1783497;79;21136;-70
2021/05/06 10:10:02;;;;;;;2.12;2.02;;;;;;;21.08;50.60;99068.53;1793526;79;21185;-71
2021/05/06 10:12:38;;;;;;;2.27;1.32;;;;;;;21.12;50.59;99076.40;1788611;79;21146;-70
2021/05/06 10:15:10;;;;;;;1.50;1.40;;;;;;;21.15;50.60;99082.11;1780284;79;21185;-71
2021/05/06 10:17:37;;;;;;;1.77;1.67;;;;;;;21.19;50.40;99083.78;1799980;79;21158;-71
2021/05/06 10:20:07;;;;;;;1.85;1.75;;;;;;;21.21;50.37;99077.04;1799506;79;21574;-69
2021/05/06 10:22:34;;;;;;;1.60;1.50;;;;;;;21.26;50.49;99076.27;1806489;79;21673;-71
2021/05/06 10:25:08;;;;;;;1.62;1.50;;;;;;;21.31;50.50;99078.22;1761549;79;21115;-70
2021/05/06 10:27:35;;;;;;;1.60;1.50;;;;;;;21.35;50.47;99080.15;1748613;80;22783;-70
2021/05/06 10:30:07;;;;;;;1.55;1.45;;;;;;;21.43;50.36;99075.36;1748568;80;21610;-71
2021/05/06 10:32:35;;;;;;;1.87;1.50;;;;;;;21.48;50.67;99072.20;1748644;80;21122;-70
2021/05/06 10:35:09;;;;;;;1.52;1.42;;;;;;;21.55;50.54;99083.61;1748666;80;21607;-72
2021/05/06 10:37:39;;;;;;;1.87;1.77;;;;;;;21.62;50.63;99083.95;1748623;80;21170;-70
2021/05/06 10:40:28;;;;;;;1.65;1.55;;;;;;;21.69;50.83;99084.53;1748633;80;22248;-71
2021/05/06 10:43:22;;;;;;;2.05;1.67;;;;;;;21.75;50.82;99088.39;1748587;80;21610;-70
2021/05/06 10:46:03;;;;;;;1.42;1.32;;;;;;;21.82;50.66;99088.70;1722729;80;21090;-70
2021/05/06 10:49:02;;;;;;;1.98;1.52;;;;;;;21.86;50.43;99094.69;1788299;80;21637;-66
2021/05/06 10:51:40;;;;;;;1.50;1.40;;;;;;;21.90;50.59;99089.58;1782387;80;21159;-65
2021/05/06 10:54:27;;;;;;;1.40;1.30;;;;;;;21.95;51.34;99089.62;1785046;79;21348;-65
2021/05/06 10:56:56;;;;;;;1.50;1.40;;;;;;;22.02;51.36;99095.64;1789620;79;21131;-65
2021/05/06 10:59:28;;;;;;;1.55;1.40;;;;;;;22.11;50.56;99087.84;1802057;79;21147;-64
2021/05/06 11:01:56;;;;;;;1.40;1.30;;;;;;;22.19;50.11;99086.84;1802114;79;21123;-67
2021/05/06 11:04:38;;;;;;;1.55;1.45;;;;;;;22.32;50.35;99088.83;1779873;79;21093;-64
2021/05/06 11:07:23;;;;;;;1.90;1.80;;;;;;;22.44;50.22;99090.78;1802017;79;21123;-64
2021/05/06 11:09:54;;;;;;;1.60;1.50;;;;;;;22.56;50.41;99091.41;1802210;79;21104;-64
2021/05/06 11:12:26;;;;;;;2.25;1.50;;;;;;;22.68;51.34;99089.04;1802256;79;21183;-63
2021/05/06 11:15:06;;;;;;;1.40;1.30;;;;;;;22.80;51.48;99092.88;1802282;79;21229;-65
2021/05/06 11:17:39;;;;;;;1.37;1.27;;;;;;;22.91;51.48;99096.72;1802331;79;21097;-65
2021/05/06 11:20:13;;;;;;;;;;;;;;;23.01;51.40;99090.52;1804937;79;21537;-65
2021/05/06 11:22:53;;;;;;;1.52;1.42;;;;;;;23.10;51.35;99084.06;1802229;79;20935;-63
2021/05/06 11:28:25;;;;;;;1.50;1.40;;;;;;;23.33;50.80;99087.66;1815872;76;22825;-64
2021/05/06 11:30:54;;;;;;;1.57;1.47;;;;;;;23.41;50.81;99097.69;1773112;79;21153;-65
2021/05/06 11:33:28;;;;;;;1.42;1.32;;;;;;;23.53;50.96;99092.84;1818300;78;22283;-65
2021/05/06 11:36:13;;;;;;;1.50;1.40;;;;;;;23.62;50.85;99102.05;1818295;78;21125;-63
2021/05/06 11:38:54;;;;;;;1.60;1.50;;;;;;;23.72;50.76;99100.72;1817584;78;21184;-65
2021/05/06 11:41:34;;;;;;;1.75;1.32;;;;;;;23.79;50.36;99098.31;1820693;78;21130;-64
2021/05/06 11:44:05;;;;;;;1.45;1.35;;;;;;;23.85;50.04;99102.64;1818366;78;20998;-65
2021/05/06 11:49:17;;;;;;;1.25;1.17;;;;;;;23.97;49.82;99110.51;1736021;80;23354;-63
2021/05/06 11:51:46;;;;;;;1.40;1.30;;;;;;;23.98;49.58;99113.50;1763300;79;21039;-64
2021/05/06 11:54:22;;;;;;;1.32;1.22;;;;;;;24.03;49.54;99107.53;1780140;79;21185;-64
2021/05/06 11:56:57;;;;;;;1.17;1.17;;;;;;;24.11;49.44;99107.53;1788965;79;21611;-63
2021/05/06 11:59:30;;;;;;;1.37;1.30;;;;;;;24.19;49.72;99106.17;1763295;79;21055;-65
2021/05/06 12:02:07;;;;;;;1.25;1.15;;;;;;;24.28;49.45;99104.50;1770251;79;21566;-64
2021/05/06 12:04:36;;;;;;;1.47;1.37;;;;;;;24.40;49.32;99098.81;1803245;79;21107;-64
2021/05/06 12:07:16;;;;;;;1.12;1.12;;;;;;;24.53;48.43;99099.08;1773794;79;21180;-64
2021/05/06 12:09:43;;;;;;;1.20;1.20;;;;;;;24.66;48.82;99101.73;1795307;79;21117;-65
2021/05/06 12:12:11;;;;;;;1.37;1.27;;;;;;;24.82;47.78;99112.02;1795191;79;21145;-65
2021/05/06 12:14:39;;;;;;;1.35;1.25;;;;;;;24.98;47.02;99102.45;1778265;79;21200;-65
2021/05/06 12:17:07;;;;;;;1.40;1.30;;;;;;;25.12;46.73;99096.66;1767828;79;21152;-66
2021/05/06 12:19:42;;;;;;;1.42;1.32;;;;;;;25.27;46.61;99097.97;1780516;79;21428;-64
2021/05/06 12:22:10;;;;;;;1.37;1.27;;;;;;;25.40;46.32;99099.26;1787413;79;21146;-65
2021/05/06 12:24:45;;;;;;;1.10;1.10;;;;;;;25.55;46.16;99105.12;1784794;79;21633;-65
2021/05/06 12:27:29;;;;;;;1.52;1.42;;;;;;;25.69;46.01;99100.69;1778919;79;21162;-64
2021/05/06 12:30:02;;;;;;;1.17;1.12;;;;;;;25.90;46.19;99093.70;1787292;79;21138;-63
2021/05/06 12:32:37;;;;;;;1.10;1.10;;;;;;;26.28;45.87;99091.22;1774232;79;22218;-64
2021/05/06 12:35:04;;;;;;;1.30;1.20;;;;;;;26.69;45.72;99083.98;1802234;79;21210;-65
2021/05/06 12:37:32;;;;;;;1.40;1.30;;;;;;;27.07;45.53;99097.12;1769795;79;21605;-65
2021/05/06 12:40:00;;;;;;;1.62;1.52;;;;;;;27.43;45.46;99112.23;1778109;79;21108;-65
2021/05/06 12:42:31;;;;;;;1.12;1.12;;;;;;;27.79;45.31;99095.30;1796368;79;21600;-65
2021/05/06 12:44:59;;;;;;;1.50;1.40;;;;;;;28.13;44.77;99091.49;1789912;79;21346;-69
2021/05/06 12:47:31;;;;;;;1.75;1.65;;;;;;;28.40;44.33;99088.80;1786268;79;21160;-69
2021/05/06 12:50:24;;;;;;;;;;;;;;;28.46;44.19;99087.34;1792199;79;21155;-70
2021/05/06 12:52:54;;;;;;;1.17;1.10;;;;;;;28.44;43.91;99098.56;1772203;79;20227;-71
2021/05/06 12:55:31;;;;;;;1.12;1.12;;;;;;;28.22;43.86;99093.77;1782242;79;21707;-70
2021/05/06 12:58:14;;;;;;;1.50;1.40;;;;;;;28.13;43.74;99090.12;1804158;79;22297;-70
2021/05/06 13:00:48;;;;;;;1.25;1.25;;;;;;;28.00;43.70;99081.59;1776071;79;21594;-69
2021/05/06 13:03:17;;;;;;;1.35;1.25;;;;;;;27.85;44.02;99088.64;1787018;79;21176;-70
2021/05/06 13:05:48;;;;;;;1.20;1.10;;;;;;;27.70;44.17;99093.81;1782985;79;21192;-71
2021/05/06 13:08:16;;;;;;;1.27;1.20;;;;;;;27.55;44.46;99089.96;1794699;79;21549;-71
2021/05/06 13:10:48;;;;;;;1.10;1.10;;;;;;;27.40;44.56;99087.70;1799045;79;21618;-71
2021/05/06 13:13:49;;;;;;;1.20;1.20;;;;;;;27.24;44.81;99084.39;1807800;79;21174;-71
2021/05/06 13:16:38;;;;;;;1.50;1.40;;;;;;;27.12;44.99;99080.44;1785440;79;21141;-69
2021/05/06 13:19:09;;;;;;;1.12;1.10;;;;;;;26.94;45.01;99082.05;1758006;79;21185;-71
2021/05/06 13:21:37;;;;;;;1.20;1.10;;;;;;;26.78;45.19;99088.25;1762744;79;21206;-70
2021/05/06 13:24:08;;;;;;;1.20;1.20;;;;;;;26.65;45.38;99091.92;1801519;79;21365;-71
2021/05/06 13:26:37;;;;;;;1.25;1.22;;;;;;;26.55;45.43;99086.56;1794684;79;21180;-69
2021/05/06 13:29:07;;;;;;;1.47;1.37;;;;;;;26.44;45.35;99087.25;1794625;79;21137;-71
2021/05/06 13:31:37;;;;;;;1.27;1.17;;;;;;;26.36;45.42;99087.05;1778509;79;21120;-69
2021/05/06 13:34:15;;;;;;;1.30;1.20;;;;;;;26.25;45.37;99089.05;1762706;79;21191;-71
2021/05/06 13:36:59;;;;;;;1.50;1.40;;;;;;;26.16;45.48;99083.44;1785817;79;21356;-70
2021/05/06 13:39:27;;;;;;;1.47;1.07;;;;;;;26.05;45.65;99086.80;1787646;79;21174;-69
2021/05/06 13:41:54;;;;;;;1.40;1.30;;;;;;;25.95;45.74;99088.26;1780335;79;22106;-71
2021/05/06 13:44:24;;;;;;;1.30;1.20;;;;;;;25.88;45.93;99095.38;1794566;79;21549;-70
2021/05/06 13:46:58;;;;;;;1.42;1.32;;;;;;;25.81;45.95;99089.99;1794670;79;21094;-71
2021/05/06 13:49:27;;;;;;;1.40;1.07;;;;;;;25.74;45.87;99093.58;1804075;79;22159;-70
2021/05/06 13:51:56;;;;;;;1.20;1.20;;;;;;;25.66;45.92;99093.08;1778252;79;21153;-70
2021/05/06 13:54:25;;;;;;;1.10;1.10;;;;;;;25.60;46.03;99087.97;1786987;79;21133;-69
2021/05/06 13:56:54;;;;;;;1.10;1.10;;;;;;;25.53;46.01;99099.16;1777834;79;21153;-69
2021/05/06 13:59:22;;;;;;;1.17;1.15;;;;;;;25.46;46.04;99097.33;1797312;79;21162;-69
2021/05/06 14:01:54;;;;;;;1.05;1.05;;;;;;;25.41;46.07;99109.02;1787709;79;21368;-69
2021/05/06 14:04:22;;;;;;;1.42;1.32;;;;;;;25.35;46.40;99101.20;1790101;79;21159;-69
2021/05/06 14:06:50;;;;;;;1.37;1.27;;;;;;;25.29;46.38;99105.84;1790572;79;21094;-71
2021/05/06 14:09:19;;;;;;;1.50;1.40;;;;;;;25.23;46.39;99102.34;1781368;79;21175;-69
2021/05/06 14:11:48;;;;;;;1.27;1.17;;;;;;;25.18;46.37;99106.95;1774689;79;21151;-70
2021/05/06 14:14:16;;;;;;;1.40;1.30;;;;;;;25.13;46.49;99113.24;1782204;79;21353;-70
2021/05/06 14:16:44;;;;;;;1.30;1.20;;;;;;;25.08;46.61;99107.83;1783036;79;21188;-71
2021/05/06 14:19:12;;;;;;;1.10;1.10;;;;;;;25.02;46.69;99103.52;1777931;79;21585;-71
2021/05/06 14:21:42;;;;;;;1.42;1.32;;;;;;;24.98;46.78;99106.52;1798729;79;21126;-70
2021/05/06 14:24:11;;;;;;;1.35;1.00;;;;;;;24.91;46.80;99098.10;1792564;79;21173;-71
2021/05/06 14:26:42;;;;;;;1.20;1.10;;;;;;;24.88;46.70;99110.09;1794889;79;21201;-69
2021/05/06 14:29:10;;;;;;;1.02;1.00;;;;;;;24.82;46.56;99114.73;1784220;79;21156;-69
2021/05/06 14:31:37;;;;;;;1.30;1.20;;;;;;;24.78;46.67;99120.98;1780726;79;21149;-69
2021/05/06 14:34:04;;;;;;;1.05;1.05;;;;;;;24.73;46.59;99117.75;1787015;79;21171;-70
2021/05/06 14:36:32;;;;;;;1.30;1.20;;;;;;;24.67;46.62;99115.59;1787005;79;21113;-69
2021/05/06 14:39:02;;;;;;;1.40;1.30;;;;;;;24.64;46.66;99123.47;1777816;79;21397;-69
2021/05/06 14:41:29;;;;;;;1.07;1.07;;;;;;;24.59;46.60;99112.61;1794013;79;21630;-70
2021/05/06 14:43:57;;;;;;;1.10;1.10;;;;;;;24.55;46.62;99115.61;1805913;79;21190;-70
2021/05/06 14:46:25;;;;;;;1.37;1.27;;;;;;;24.51;46.58;99120.78;1773942;79;21135;-70
2021/05/06 14:48:52;;;;;;;1.27;1.17;;;;;;;24.47;46.68;99127.81;1784288;79;21164;-69
2021/05/06 14:51:20;;;;;;;1.25;1.15;;;;;;;24.43;46.59;99120.77;1780567;79;22304;-69
2021/05/06 14:53:48;;;;;;;1.00;1.00;;;;;;;24.39;46.65;99121.05;1791983;79;21208;-69
2021/05/06 14:56:15;;;;;;;1.57;1.00;;;;;;;24.33;46.58;99118.88;1791983;79;21146;-68
2021/05/06 14:58:42;;;;;;;1.75;1.10;;;;;;;24.30;46.65;99124.07;1791988;79;21173;-64
2021/05/06 15:01:10;;;;;;;1.30;1.20;;;;;;;24.25;46.63;99124.06;1791984;79;21160;-64
2021/05/06 15:03:38;;;;;;;1.22;1.12;;;;;;;24.21;46.71;99125.70;1803324;79;22281;-64
2021/05/06 15:06:05;;;;;;;1.35;1.20;;;;;;;24.16;46.73;99127.86;1800204;79;21150;-63
2021/05/06 15:08:33;;;;;;;1.30;1.20;;;;;;;24.12;46.75;99132.20;1806072;79;21134;-64
2021/05/06 15:11:01;;;;;;;1.30;1.20;;;;;;;24.06;46.65;99127.32;1792048;79;21192;-64